createdAt,value
2022-10-10T00:02:06.757Z,97.26
2022-10-10T00:04:34.886Z,97.72
2022-10-10T00:07:02.877Z,97.14
2022-10-10T00:09:32.270Z,96.44
2022-10-10T00:12:00.341Z,97.59
2022-10-10T00:14:31.629Z,97.87
2022-10-10T00:17:00.631Z,99.29
2022-10-10T00:19:28.751Z,98.54
2022-10-10T00:21:56.912Z,97.87
2022-10-10T00:24:24.917Z,98.51
2022-10-10T00:26:54.303Z,98.44
2022-10-10T00:29:22.259Z,98.36
2022-10-10T00:31:50.304Z,98.41
2022-10-10T00:34:18.295Z,98.28
2022-10-10T00:36:46.300Z,98.51
2022-10-10T00:39:14.317Z,98.93
2022-10-10T00:41:42.307Z,99.28
2022-10-10T00:44:13.909Z,99.73
2022-10-10T00:46:42.789Z,100.00
2022-10-10T00:49:14.414Z,100.00
2022-10-10T00:51:43.407Z,100.00
2022-10-10T00:54:14.131Z,100.00
2022-10-10T00:56:49.460Z,100.00
2022-10-10T00:59:21.186Z,100.00
2022-10-10T01:01:49.213Z,100.00
2022-10-10T01:04:34.487Z,100.00
2022-10-10T01:07:04.369Z,100.00
2022-10-10T01:09:33.615Z,100.00
2022-10-10T01:12:13.499Z,100.00
2022-10-10T01:14:49.265Z,100.00
2022-10-10T01:17:24.076Z,100.00
2022-10-10T01:20:29.960Z,100.00
2022-10-10T01:23:18.196Z,100.00
2022-10-10T01:26:03.483Z,100.00
2022-10-10T01:28:40.509Z,100.00
2022-10-10T01:31:11.848Z,100.00
2022-10-10T01:33:49.990Z,100.00
2022-10-10T01:36:23.626Z,100.00
2022-10-10T01:38:57.096Z,100.00
2022-10-10T01:41:29.181Z,100.00
2022-10-10T01:43:59.786Z,100.00
2022-10-10T01:46:28.007Z,100.00
2022-10-10T01:48:58.951Z,100.00
2022-10-10T01:51:50.545Z,100.00
2022-10-10T01:54:35.034Z,100.00
2022-10-10T01:57:19.848Z,100.00
2022-10-10T02:00:00.946Z,100.00
2022-10-10T02:02:40.869Z,100.00
2022-10-10T02:05:18.697Z,100.00
2022-10-10T02:07:52.485Z,100.00
2022-10-10T02:10:25.272Z,100.00
2022-10-10T02:12:53.895Z,100.00
2022-10-10T02:15:26.920Z,100.00
2022-10-10T02:17:55.780Z,100.00
2022-10-10T02:20:27.430Z,100.00
2022-10-10T02:22:56.921Z,100.00
2022-10-10T02:25:29.273Z,100.00
2022-10-10T02:28:07.665Z,100.00
2022-10-10T02:30:42.853Z,100.00
2022-10-10T02:33:13.030Z,100.00
2022-10-10T02:35:44.204Z,100.00
2022-10-10T02:38:15.726Z,100.00
2022-10-10T02:40:47.387Z,100.00
2022-10-10T02:43:16.578Z,100.00
2022-10-10T02:45:46.473Z,100.00
2022-10-10T02:48:14.541Z,100.00
2022-10-10T02:50:42.877Z,100.00
2022-10-10T02:53:10.825Z,100.00
2022-10-10T02:55:38.854Z,100.00
2022-10-10T02:58:06.856Z,100.00
2022-10-10T03:00:34.898Z,100.00
2022-10-10T03:03:04.781Z,100.00
2022-10-10T03:05:32.796Z,100.00
2022-10-10T03:08:00.797Z,100.00
2022-10-10T03:10:28.828Z,100.00
2022-10-10T03:12:56.902Z,100.00
2022-10-10T03:15:24.871Z,100.00
2022-10-10T03:17:52.827Z,100.00
2022-10-10T03:20:22.297Z,100.00
2022-10-10T03:22:50.518Z,100.00
2022-10-10T03:25:18.894Z,100.00
2022-10-10T03:27:46.882Z,100.00
2022-10-10T03:30:15.178Z,100.00
2022-10-10T03:32:43.285Z,100.00
2022-10-10T03:35:11.297Z,100.00
2022-10-10T03:37:40.646Z,100.00
2022-10-10T03:40:09.297Z,100.00
2022-10-10T03:42:37.438Z,100.00
2022-10-10T03:45:06.670Z,100.00
2022-10-10T03:47:34.644Z,100.00
2022-10-10T03:50:02.682Z,100.00
2022-10-10T03:52:30.702Z,100.00
2022-10-10T03:55:00.186Z,100.00
2022-10-10T03:57:28.298Z,100.00
2022-10-10T03:59:56.317Z,100.00
2022-10-10T04:02:24.353Z,100.00
2022-10-10T04:04:53.296Z,100.00
2022-10-10T04:07:21.408Z,100.00
2022-10-10T04:09:49.619Z,100.00
2022-10-10T04:12:19.628Z,100.00
2022-10-10T04:14:47.719Z,100.00
2022-10-10T04:17:15.844Z,100.00
2022-10-10T04:19:44.111Z,100.00
2022-10-10T04:22:12.501Z,100.00
2022-10-10T04:24:41.308Z,100.00
2022-10-10T04:27:09.419Z,100.00
2022-10-10T04:29:38.941Z,100.00
2022-10-10T04:32:07.622Z,100.00
2022-10-10T04:34:35.729Z,100.00
2022-10-10T04:37:05.103Z,100.00
2022-10-10T04:39:33.239Z,100.00
2022-10-10T04:42:01.425Z,100.00
2022-10-10T04:44:29.726Z,100.00
2022-10-10T04:46:59.133Z,100.00
2022-10-10T04:49:27.318Z,100.00
2022-10-10T04:51:55.307Z,100.00
2022-10-10T04:54:23.288Z,100.00
2022-10-10T04:56:51.318Z,100.00
2022-10-10T04:59:20.513Z,100.00
2022-10-10T05:01:48.524Z,100.00
2022-10-10T05:04:17.927Z,100.00
2022-10-10T05:06:46.335Z,100.00
2022-10-10T05:09:14.509Z,100.00
2022-10-10T05:11:43.004Z,100.00
2022-10-10T05:14:10.988Z,100.00
2022-10-10T05:16:38.975Z,100.00
2022-10-10T05:19:06.990Z,100.00
2022-10-10T05:21:36.528Z,100.00
2022-10-10T05:24:04.891Z,100.00
2022-10-10T05:26:32.889Z,100.00
2022-10-10T05:29:01.763Z,100.00
2022-10-10T05:31:29.888Z,100.00
2022-10-10T05:33:58.084Z,100.00
2022-10-10T05:36:26.091Z,100.00
2022-10-10T05:38:55.479Z,100.00
2022-10-10T05:41:23.520Z,100.00
2022-10-10T05:43:51.485Z,100.00
2022-10-10T05:46:20.522Z,100.00
2022-10-10T05:48:48.610Z,100.00
2022-10-10T05:51:16.635Z,100.00
2022-10-10T05:53:45.142Z,100.00
2022-10-10T05:56:16.898Z,100.00
2022-10-10T05:58:45.275Z,100.00
2022-10-10T06:01:13.301Z,100.00
2022-10-10T06:03:41.350Z,100.00
2022-10-10T06:06:09.391Z,100.00
2022-10-10T06:08:37.626Z,100.00
2022-10-10T06:11:08.141Z,100.00
2022-10-10T06:13:38.945Z,100.00
2022-10-10T06:16:07.212Z,100.00
2022-10-10T06:18:35.240Z,100.00
2022-10-10T06:21:04.176Z,100.00
2022-10-10T06:23:32.181Z,100.00
2022-10-10T06:26:00.485Z,100.00
2022-10-10T06:28:28.603Z,100.00
2022-10-10T06:31:01.029Z,100.00
2022-10-10T06:33:29.230Z,100.00
2022-10-10T06:35:57.242Z,100.00
2022-10-10T06:38:25.508Z,100.00
2022-10-10T06:40:54.790Z,100.00
2022-10-10T06:43:25.500Z,100.00
2022-10-10T06:45:53.462Z,95.88
2022-10-10T06:48:22.905Z,95.82
2022-10-10T06:50:58.913Z,95.14
2022-10-10T06:53:28.035Z,95.47
2022-10-10T06:55:56.693Z,95.63
2022-10-10T06:58:26.311Z,94.86
2022-10-10T07:00:55.710Z,93.64
2022-10-10T07:03:26.084Z,91.66
2022-10-10T07:05:55.830Z,91.00
2022-10-10T07:08:24.613Z,90.24
2022-10-10T07:10:52.692Z,89.76
2022-10-10T07:13:21.346Z,89.56
2022-10-10T07:15:50.035Z,87.82
2022-10-10T07:18:20.023Z,84.84
2022-10-10T07:20:49.923Z,85.05
2022-10-10T07:23:18.378Z,83.80
2022-10-10T07:25:46.509Z,82.41
2022-10-10T07:28:14.566Z,82.57
2022-10-10T07:30:44.031Z,82.75
2022-10-10T07:33:12.652Z,82.13
2022-10-10T07:35:41.344Z,82.63
2022-10-10T07:38:12.049Z,81.29
2022-10-10T07:40:41.446Z,78.23
2022-10-10T07:43:09.539Z,78.17
2022-10-10T07:45:37.980Z,77.76
2022-10-10T07:48:06.593Z,78.08
2022-10-10T07:50:34.612Z,77.24
2022-10-10T07:53:02.923Z,75.85
2022-10-10T07:55:32.499Z,76.37
2022-10-10T07:58:03.138Z,77.09
2022-10-10T08:00:31.197Z,77.77
2022-10-10T08:02:59.212Z,77.75
2022-10-10T08:05:27.546Z,75.47
2022-10-10T08:07:55.912Z,75.13
2022-10-10T08:10:24.177Z,75.73
2022-10-10T08:12:53.558Z,76.10
2022-10-10T08:15:21.907Z,74.73
2022-10-10T08:17:50.188Z,74.81
2022-10-10T08:20:18.590Z,73.13
2022-10-10T08:22:46.589Z,73.10
2022-10-10T08:25:14.900Z,73.45
2022-10-10T08:27:43.576Z,74.21
2022-10-10T08:30:14.070Z,72.86
2022-10-10T08:32:42.106Z,71.81
2022-10-10T08:35:10.383Z,71.14
2022-10-10T08:37:38.813Z,71.72
2022-10-10T08:40:08.406Z,70.68
2022-10-10T08:42:47.111Z,71.11
2022-10-10T08:45:21.507Z,71.51
2022-10-10T08:47:54.285Z,70.62
2022-10-10T08:50:26.527Z,70.87
2022-10-10T08:52:58.938Z,68.70
2022-10-10T08:55:33.547Z,69.08
2022-10-10T08:58:07.467Z,67.45
2022-10-10T09:00:41.218Z,67.13
2022-10-10T09:03:21.667Z,66.15
2022-10-10T09:06:05.165Z,64.86
2022-10-10T09:08:46.450Z,64.85
2022-10-10T09:11:29.465Z,64.27
2022-10-10T09:14:09.800Z,64.50
2022-10-10T09:16:48.365Z,63.88
2022-10-10T09:19:30.698Z,62.82
2022-10-10T09:22:04.686Z,62.37
2022-10-10T09:24:41.210Z,61.65
2022-10-10T09:27:16.393Z,61.21
2022-10-10T09:29:50.622Z,60.28
2022-10-10T09:32:24.199Z,58.69
2022-10-10T09:34:56.416Z,58.64
2022-10-10T09:37:46.246Z,58.65
2022-10-10T09:40:23.300Z,58.20
2022-10-10T09:42:51.762Z,57.25
2022-10-10T09:45:22.348Z,56.86
2022-10-10T09:47:55.119Z,57.03
2022-10-10T09:50:24.389Z,57.66
2022-10-10T09:52:53.603Z,57.29
2022-10-10T09:55:27.063Z,57.37
2022-10-10T09:57:59.863Z,58.12
2022-10-10T10:00:34.596Z,56.67
2022-10-10T10:03:12.978Z,55.84
2022-10-10T10:05:43.245Z,55.68
2022-10-10T10:08:24.086Z,55.63
2022-10-10T10:10:52.289Z,55.81
2022-10-10T10:13:25.543Z,54.98
2022-10-10T10:15:59.943Z,54.17
2022-10-10T10:18:30.325Z,53.35
2022-10-10T10:21:15.226Z,54.36
2022-10-10T10:23:45.376Z,55.98
2022-10-10T10:26:19.853Z,55.74
2022-10-10T10:28:49.551Z,54.64
2022-10-10T10:31:42.663Z,53.60
2022-10-10T10:34:40.879Z,53.69
2022-10-10T10:37:19.123Z,53.47
2022-10-10T10:40:18.158Z,54.13
2022-10-10T10:43:01.253Z,52.91
2022-10-10T10:45:38.585Z,52.78
2022-10-10T10:48:18.484Z,52.28
2022-10-10T10:50:53.875Z,51.01
2022-10-10T10:53:32.278Z,50.01
2022-10-10T10:56:10.352Z,50.76
2022-10-10T10:59:30.215Z,50.75
2022-10-10T11:02:00.970Z,50.31
2022-10-10T11:05:18.961Z,50.82
2022-10-10T11:07:54.697Z,50.54
2022-10-10T11:10:30.486Z,49.78
2022-10-10T11:13:07.953Z,49.42
2022-10-10T11:16:06.203Z,50.01
2022-10-10T11:18:34.744Z,50.80
2022-10-10T11:21:08.011Z,50.64
2022-10-10T11:23:44.078Z,51.30
2022-10-10T11:26:17.957Z,50.45
2022-10-10T11:28:51.871Z,50.28
2022-10-10T11:31:25.675Z,50.15
2022-10-10T11:33:58.789Z,50.23
2022-10-10T11:36:31.510Z,49.87
2022-10-10T11:39:04.662Z,50.74
2022-10-10T11:41:38.336Z,51.15
2022-10-10T11:44:13.718Z,50.97
2022-10-10T11:46:44.845Z,50.77
2022-10-10T11:49:21.140Z,51.28
2022-10-10T11:52:32.457Z,50.44
2022-10-10T11:55:07.946Z,49.77
2022-10-10T11:57:42.473Z,49.21
2022-10-10T12:00:16.057Z,49.81
2022-10-10T12:02:46.007Z,49.52
2022-10-10T12:05:23.340Z,49.32
2022-10-10T12:08:08.679Z,50.17
2022-10-10T12:10:43.730Z,50.47
2022-10-10T12:13:26.696Z,49.15
2022-10-10T12:15:57.960Z,50.21
2022-10-10T12:18:29.414Z,49.37
2022-10-10T12:21:09.553Z,48.45
2022-10-10T12:23:38.737Z,48.50
2022-10-10T12:26:08.281Z,48.51
2022-10-10T12:28:38.809Z,49.05
2022-10-10T12:31:30.396Z,48.41
2022-10-10T12:34:17.851Z,48.48
2022-10-10T12:36:59.068Z,49.11
2022-10-10T12:39:38.601Z,48.54
2022-10-10T12:42:33.427Z,48.12
2022-10-10T12:45:02.024Z,48.03
2022-10-10T12:48:04.057Z,48.45
2022-10-10T12:50:34.612Z,48.28
2022-10-10T12:53:05.536Z,48.60
2022-10-10T12:55:42.838Z,49.03
2022-10-10T12:58:26.620Z,49.29
2022-10-10T13:00:57.506Z,48.39
2022-10-10T13:03:32.425Z,48.46
2022-10-10T13:06:06.564Z,48.26
2022-10-10T13:08:38.839Z,48.10
2022-10-10T13:11:11.416Z,49.03
2022-10-10T13:13:42.907Z,49.19
2022-10-10T13:16:15.443Z,49.66
2022-10-10T13:18:50.034Z,49.46
2022-10-10T13:21:22.788Z,49.34
2022-10-10T13:26:46.782Z,48.62
2022-10-10T13:29:24.668Z,48.68
2022-10-10T13:31:54.232Z,48.25
2022-10-10T13:34:27.360Z,48.90
2022-10-10T13:36:58.317Z,49.09
2022-10-10T13:39:27.687Z,48.79
2022-10-10T13:41:56.558Z,49.14
2022-10-10T13:44:31.643Z,48.95
2022-10-10T13:47:00.032Z,49.28
2022-10-10T13:49:29.682Z,49.37
2022-10-10T13:52:03.551Z,50.36
2022-10-10T13:54:39.555Z,49.19
2022-10-10T13:57:14.567Z,48.99
2022-10-10T13:59:45.383Z,48.67
2022-10-10T14:02:16.795Z,48.89
2022-10-10T14:04:51.021Z,49.30
2022-10-10T14:07:22.993Z,49.81
2022-10-10T14:09:55.854Z,50.14
2022-10-10T14:12:29.373Z,49.78
2022-10-10T14:15:00.246Z,49.95
2022-10-10T14:17:29.643Z,50.10
2022-10-10T14:19:58.031Z,50.09
2022-10-10T14:22:26.840Z,50.22
2022-10-10T14:24:54.830Z,50.47
2022-10-10T14:27:25.598Z,50.68
2022-10-10T14:29:54.825Z,50.44
2022-10-10T14:32:25.190Z,49.98
2022-10-10T14:34:53.201Z,49.91
2022-10-10T14:37:24.810Z,49.58
2022-10-10T14:39:53.202Z,50.25
2022-10-10T14:42:22.801Z,49.79
2022-10-10T14:44:50.945Z,49.38
2022-10-10T14:47:22.265Z,49.00
2022-10-10T14:49:52.856Z,48.78
2022-10-10T14:52:20.925Z,48.91
2022-10-10T14:54:49.786Z,49.60
2022-10-10T14:57:22.434Z,49.77
2022-10-10T14:59:50.497Z,50.22
2022-10-10T15:02:20.826Z,49.62
2022-10-10T15:04:49.489Z,50.43
2022-10-10T15:07:19.741Z,50.14
2022-10-10T15:10:27.552Z,49.77
2022-10-10T15:12:41.574Z,50.20
2022-10-10T15:15:11.298Z,50.62
2022-10-10T15:17:39.380Z,51.19
2022-10-10T15:20:10.987Z,51.36
2022-10-10T15:22:41.173Z,51.96
2022-10-10T15:25:10.427Z,52.36
2022-10-10T15:27:39.670Z,52.87
2022-10-10T15:30:09.186Z,52.70
2022-10-10T15:32:40.190Z,52.93
2022-10-10T15:35:09.102Z,53.07
2022-10-10T15:37:37.198Z,53.67
2022-10-10T15:40:07.788Z,53.88
2022-10-10T15:42:35.841Z,54.02
2022-10-10T15:45:03.999Z,54.21
2022-10-10T15:47:32.466Z,54.51
2022-10-10T15:50:01.353Z,54.70
2022-10-10T15:52:29.443Z,55.38
2022-10-10T15:54:57.751Z,55.95
2022-10-10T15:57:27.422Z,55.99
2022-10-10T15:59:56.011Z,56.61
2022-10-10T16:02:24.298Z,57.05
2022-10-10T16:04:52.418Z,57.25
2022-10-10T16:07:28.165Z,57.61
2022-10-10T16:09:58.077Z,57.95
2022-10-10T16:12:27.603Z,58.33
2022-10-10T16:14:56.667Z,58.66
2022-10-10T16:17:24.741Z,59.19
2022-10-10T16:19:52.839Z,59.57
2022-10-10T16:22:21.881Z,59.94
2022-10-10T16:25:04.056Z,60.15
2022-10-10T16:27:43.185Z,60.91
2022-10-10T16:30:12.325Z,60.88
2022-10-10T16:32:42.587Z,61.13
2022-10-10T16:35:11.897Z,61.58
2022-10-10T16:37:41.348Z,61.68
2022-10-10T16:40:10.519Z,62.15
2022-10-10T16:42:40.148Z,62.34
2022-10-10T16:45:09.403Z,62.29
2022-10-10T16:47:38.239Z,62.47
2022-10-10T16:50:08.620Z,62.80
2022-10-10T16:52:38.403Z,63.22
2022-10-10T16:55:07.967Z,63.48
2022-10-10T16:57:36.709Z,63.74
2022-10-10T17:00:08.743Z,63.68
2022-10-10T17:02:38.984Z,64.19
2022-10-10T17:05:07.978Z,64.39
2022-10-10T17:07:36.827Z,64.66
2022-10-10T17:10:05.903Z,65.30
2022-10-10T17:12:34.002Z,65.34
2022-10-10T17:15:02.217Z,65.80
2022-10-10T17:17:31.847Z,66.26
2022-10-10T17:19:59.949Z,66.91
2022-10-10T17:22:28.016Z,67.41
2022-10-10T17:24:56.197Z,67.69
2022-10-10T17:27:25.252Z,68.09
2022-10-10T17:29:54.116Z,68.21
2022-10-10T17:32:22.843Z,68.42
2022-10-10T17:34:53.649Z,68.33
2022-10-10T17:37:22.331Z,68.11
2022-10-10T17:39:50.499Z,68.46
2022-10-10T17:42:18.808Z,68.62
2022-10-10T17:44:51.451Z,68.55
2022-10-10T17:47:22.934Z,68.72
2022-10-10T17:49:54.783Z,69.15
2022-10-10T17:52:24.889Z,69.31
2022-10-10T17:54:52.930Z,69.35
2022-10-10T17:57:21.589Z,69.52
2022-10-10T17:59:49.970Z,69.27
2022-10-10T18:02:19.857Z,69.74
2022-10-10T18:04:48.601Z,69.45
2022-10-10T18:07:19.133Z,69.73
2022-10-10T18:09:49.045Z,69.97
2022-10-10T18:12:17.490Z,70.29
2022-10-10T18:14:45.629Z,70.42
2022-10-10T18:17:14.286Z,70.77
2022-10-10T18:19:42.543Z,71.50
2022-10-10T18:22:11.916Z,71.43
2022-10-10T18:24:41.505Z,71.42
2022-10-10T18:27:09.549Z,72.03
2022-10-10T18:29:38.341Z,72.25
2022-10-10T18:32:06.853Z,72.88
2022-10-10T18:34:34.965Z,72.53
2022-10-10T18:37:02.973Z,72.75
2022-10-10T18:39:33.282Z,72.94
2022-10-10T18:42:03.138Z,72.91
2022-10-10T18:44:31.431Z,72.99
2022-10-10T18:46:59.487Z,72.57
2022-10-10T18:49:27.830Z,72.70
2022-10-10T18:51:56.410Z,73.33
2022-10-10T18:54:28.037Z,73.39
2022-10-10T18:56:56.153Z,73.91
2022-10-10T18:59:26.433Z,73.99
2022-10-10T19:01:54.503Z,74.33
2022-10-10T19:04:23.259Z,74.23
2022-10-10T19:06:57.062Z,73.71
2022-10-10T19:09:26.912Z,74.52
2022-10-10T19:11:55.234Z,74.27
2022-10-10T19:14:23.625Z,73.82
2022-10-10T19:16:53.813Z,74.77
2022-10-10T19:19:22.868Z,74.94
2022-10-10T19:21:51.868Z,74.75
2022-10-10T19:24:21.491Z,75.05
2022-10-10T19:26:53.532Z,75.37
2022-10-10T19:29:22.347Z,75.74
2022-10-10T19:31:53.006Z,76.33
2022-10-10T19:34:21.219Z,76.31
2022-10-10T19:36:50.203Z,76.25
2022-10-10T19:39:18.199Z,76.51
2022-10-10T19:41:46.189Z,76.98
2022-10-10T19:44:14.334Z,77.73
2022-10-10T19:46:42.381Z,77.49
2022-10-10T19:49:13.016Z,77.69
2022-10-10T19:51:41.125Z,78.56
2022-10-10T19:54:09.509Z,78.96
2022-10-10T19:56:39.722Z,78.71
2022-10-10T19:59:07.805Z,78.39
2022-10-10T20:01:35.994Z,79.16
2022-10-10T20:04:04.303Z,79.67
2022-10-10T20:06:33.725Z,80.06
2022-10-10T20:09:01.704Z,80.46
2022-10-10T20:11:29.967Z,80.30
2022-10-10T20:13:58.650Z,80.20
2022-10-10T20:16:27.865Z,80.78
2022-10-10T20:18:57.597Z,81.00
2022-10-10T20:21:31.793Z,81.46
2022-10-10T20:24:03.141Z,81.79
2022-10-10T20:26:32.583Z,81.79
2022-10-10T20:29:01.245Z,82.12
2022-10-10T20:31:30.926Z,82.19
2022-10-10T20:34:01.890Z,82.24
2022-10-10T20:36:31.574Z,82.94
2022-10-10T20:39:02.813Z,83.03
2022-10-10T20:41:33.395Z,83.24
2022-10-10T20:44:04.533Z,83.36
2022-10-10T20:46:35.876Z,83.89
2022-10-10T20:49:06.914Z,83.93
2022-10-10T20:51:35.658Z,83.80
2022-10-10T20:54:07.763Z,84.68
2022-10-10T20:56:37.063Z,85.47
2022-10-10T20:59:05.337Z,85.64
2022-10-10T21:01:33.396Z,86.48
2022-10-10T21:04:02.174Z,86.52
2022-10-10T21:06:33.159Z,86.82
2022-10-10T21:09:03.021Z,86.65
2022-10-10T21:11:32.718Z,86.79
2022-10-10T21:14:02.176Z,86.60
2022-10-10T21:16:32.899Z,86.77
2022-10-10T21:19:01.327Z,87.19
2022-10-10T21:21:31.038Z,87.27
2022-10-10T21:23:59.568Z,87.07
2022-10-10T21:26:29.302Z,87.07
2022-10-10T21:29:02.234Z,87.48
2022-10-10T21:31:32.134Z,88.76
2022-10-10T21:34:00.770Z,89.02
2022-10-10T21:36:28.790Z,89.64
2022-10-10T21:38:57.256Z,90.26
2022-10-10T21:41:25.402Z,91.15
2022-10-10T21:43:55.900Z,91.25
2022-10-10T21:46:29.148Z,92.12
2022-10-10T21:48:59.475Z,92.49
2022-10-10T21:51:27.447Z,92.70
2022-10-10T21:53:57.797Z,92.75
2022-10-10T21:56:26.543Z,93.35
2022-10-10T21:58:58.858Z,94.39
2022-10-10T22:01:33.355Z,95.34
2022-10-10T22:04:02.462Z,95.82
2022-10-10T22:06:30.901Z,96.99
2022-10-10T22:09:01.550Z,97.31
2022-10-10T22:11:31.463Z,95.91
2022-10-10T22:14:02.382Z,95.96
2022-10-10T22:16:32.908Z,95.83
2022-10-10T22:19:01.010Z,95.96
2022-10-10T22:21:32.092Z,95.83
2022-10-10T22:24:01.604Z,95.68
2022-10-10T22:26:30.493Z,95.63
2022-10-10T22:28:58.889Z,95.90
2022-10-10T22:31:27.086Z,97.06
2022-10-10T22:33:56.401Z,96.70
2022-10-10T22:36:24.408Z,97.09
2022-10-10T22:38:52.344Z,96.82
2022-10-10T22:41:20.357Z,96.16
2022-10-10T22:43:49.768Z,96.60
2022-10-10T22:46:17.891Z,96.97
2022-10-10T22:48:46.034Z,97.20
2022-10-10T22:51:17.660Z,97.98
2022-10-10T22:53:46.858Z,98.39
2022-10-10T22:56:16.435Z,99.69
2022-10-10T22:58:45.022Z,100.00
2022-10-10T23:01:18.490Z,100.00
2022-10-10T23:03:46.675Z,100.00
2022-10-10T23:06:16.490Z,100.00
2022-10-10T23:08:44.646Z,100.00
2022-10-10T23:11:12.683Z,100.00
2022-10-10T23:13:40.725Z,100.00
2022-10-10T23:16:09.342Z,100.00
2022-10-10T23:18:37.423Z,100.00
2022-10-10T23:21:05.396Z,100.00
2022-10-10T23:23:34.974Z,100.00
2022-10-10T23:26:07.462Z,100.00
2022-10-10T23:28:36.920Z,100.00
2022-10-10T23:31:08.620Z,100.00
2022-10-10T23:33:37.634Z,100.00
2022-10-10T23:36:08.763Z,100.00
2022-10-10T23:38:38.481Z,100.00
2022-10-10T23:41:06.972Z,100.00
2022-10-10T23:43:35.290Z,100.00
2022-10-10T23:46:03.887Z,100.00
2022-10-10T23:48:32.435Z,100.00
2022-10-10T23:51:00.445Z,100.00
2022-10-10T23:53:28.508Z,100.00
2022-10-10T23:55:58.069Z,100.00
2022-10-10T23:58:26.118Z,100.00
